Flight Track Log - Related Links

Times and Time Zones

All times are in EDT time to prevent confusion due to time zone crossing. See the UPS1337 flight status page for this flight to view local times or setup timezone preferences in your user account.

Time Position Orientation Groundspeed Altitude Reporting Facility
EDT Latitude Longitude Course Direction KTS MPH feet Rate Location/Type
Wed 09:40:23 PM 27.9167 -82.6833 360° North 168 193 800  Level Tampa TRACON
Wed 09:41:11 PM 27.9667 -82.6833 360° North 193 222 3,400 2,939 Climbing Tampa TRACON
Wed 09:43:41 PM 28.1247 -82.7161 350° North 245 282 10,500 2,267 Climbing Jacksonville Center
Wed 09:53:56 PM 29.3083 -83.0436 348° North 465 535 32,300 2,062 Climbing FlightAware ADS-B
Wed 09:54:56 PM 29.4338 -83.0746 348° North 467 537 33,700 449 Climbing FlightAware ADS-B
Wed 09:57:43 PM 29.7871 -83.1609 348° North 382 440 34,000 65 Climbing FlightAware ADS-B
Wed 09:59:31 PM 30.0142 -83.2154 348° North 467 537 34,000  Level FlightAware ADS-B
Wed 10:00:41 PM 30.1553 -83.2553 348° North 468 539 34,000  Level Jacksonville Center
Wed 10:01:41 PM 30.2764 -83.2942 345° North 457 526 34,000 -50 Level Jacksonville Center
Wed 10:02:41 PM 30.3994 -83.3333 345° North 457 526 33,900  Descending Jacksonville Center
Wed 10:03:41 PM 30.5203 -83.3725 344° North 452 520 34,000 50 Climbing Jacksonville Center
Wed 10:04:41 PM 30.6414 -83.4142 344° North 452 520 34,000  Level Jacksonville Center
Wed 10:05:41 PM 30.7642 -83.4558 344° North 452 520 34,000  Level Jacksonville Center
Wed 10:06:41 PM 30.8728 -83.4906 345° North 452 520 34,000  Level Jacksonville Center
Wed 10:07:41 PM 30.9936 -83.5300 344° North 452 520 34,000  Level Jacksonville Center
Wed 10:08:41 PM 31.1144 -83.5697 344° North 452 520 34,000  Level Jacksonville Center
Wed 10:09:41 PM 31.2375 -83.6117 344° North 452 520 34,000  Level Jacksonville Center
Wed 10:12:10 PM 31.5353 -83.7147 344° North 452 520 34,000  Level Atlanta Center
Wed 10:13:10 PM 31.6669 -83.7583 344° North 445 512 34,000  Level Atlanta Center
Wed 10:14:10 PM 31.7861 -83.7969 345° North 445 512 34,000  Level Atlanta Center
Wed 10:15:10 PM 31.9156 -83.8431 343° North 460 529 34,000  Level Atlanta Center
Wed 10:16:10 PM 32.0344 -83.8844 344° North 455 524 34,000  Level Atlanta Center
Wed 10:17:10 PM 32.1556 -83.9236 345° North 450 518 34,000  Level Atlanta Center
Wed 10:18:10 PM 32.2767 -83.9675 343° North 450 518 34,000  Level Atlanta Center
Wed 10:19:10 PM 32.3958 -84.0094 343° North 445 512 34,000  Level Atlanta Center
Wed 10:20:10 PM 32.5147 -84.0486 344° North 440 506 34,000  Level Atlanta Center
Wed 10:21:10 PM 32.6336 -84.0881 344° North 440 506 34,000  Level Atlanta Center
Wed 10:22:10 PM 32.7525 -84.1303 343° North 440 506 34,000  Level Atlanta Center
Wed 10:23:10 PM 32.8717 -84.1722 344° North 435 501 34,000  Level Atlanta Center
Wed 10:24:10 PM 32.9781 -84.2122 342° North 440 506 34,000  Level Atlanta Center
Wed 10:25:10 PM 33.0947 -84.2519 344° North 440 506 34,000  Level Atlanta Center
Wed 10:26:10 PM 33.2117 -84.2944 343° North 434 499 34,000  Level Atlanta Center
Wed 10:31:51 PM 33.9681 -84.4457 354° North 452 520 34,000  Level FlightAware ADS-B (KDZJ)
Wed 10:32:33 PM 34.0581 -84.4576 354° North 454 522 34,000  Level FlightAware ADS-B (KDZJ)
Wed 10:33:13 PM 34.1423 -84.4687 354° North 456 525 34,000  Level FlightAware ADS-B (KDZJ)
Wed 10:33:53 PM 34.2280 -84.4800 354° North 456 525 34,000  Level FlightAware ADS-B (KDZJ)
Wed 10:34:33 PM 34.3126 -84.4911 354° North 452 520 34,000  Level FlightAware ADS-B (KDZJ)
Wed 10:35:13 PM 34.3982 -84.5025 354° North 450 518 34,000  Level FlightAware ADS-B (KDZJ)
Wed 10:35:53 PM 34.4816 -84.5135 354° North 456 525 34,000  Level FlightAware ADS-B (KDZJ)
Wed 10:36:33 PM 34.5654 -84.5247 354° North 452 520 34,000  Level FlightAware ADS-B (KDZJ)
Wed 10:37:13 PM 34.6473 -84.5357 354° North 450 518 34,000  Level FlightAware ADS-B (KDZJ)
Wed 10:37:53 PM 34.7316 -84.5470 353° North 452 520 34,000  Level FlightAware ADS-B (KDZJ)
Wed 10:38:34 PM 34.8165 -84.5587 354° North 457 526 34,000  Level FlightAware ADS-B (KDZJ)
Wed 10:39:13 PM 34.8980 -84.5695 354° North 451 519 34,000  Level FlightAware ADS-B (KDZJ)
Wed 10:39:54 PM 34.9862 -84.5813 354° North 453 521 34,000  Level FlightAware ADS-B (KDZJ)
Wed 10:40:34 PM 35.0698 -84.5925 353° North 455 524 34,000  Level FlightAware ADS-B (KDZJ)
Wed 10:41:14 PM 35.1558 -84.6042 354° North 456 525 34,000  Level FlightAware ADS-B (KDZJ)
Wed 10:42:10 PM 35.2411 -84.6186 354° North 456 525 34,000  Level Atlanta Center
Wed 10:43:10 PM 35.3664 -84.6347 354° North 461 531 34,000  Level Atlanta Center
Wed 10:44:10 PM 35.4936 -84.6508 354° North 461 531 34,000  Level Atlanta Center
Wed 10:45:10 PM 35.6208 -84.6697 353° North 461 531 34,000  Level Atlanta Center
Wed 10:46:10 PM 35.7436 -84.6861 354° North 456 525 34,000 -630 Level Atlanta Center
Wed 10:51:50 PM 36.3971 -84.7748 354° North 415 478 29,800 -1,200 Descending FlightAware ADS-B
Wed 10:53:55 PM 36.6534 -84.8108 353° North 428 493 24,700 -2,238 Descending FlightAware ADS-B
Wed 10:54:55 PM 36.8031 -84.8319 354° North 409 471 22,900 -1,780 Descending FlightAware ADS-B
Wed 10:55:53 PM 36.9117 -84.8472 354° North 393 452 21,200 -1,629 Descending FlightAware ADS-B
Wed 11:00:08 PM 37.3577 -84.9104 353° North 365 420 14,400 -1,612 Descending FlightAware ADS-B
Wed 11:01:02 PM 37.4511 -84.9236 354° North 358 412 12,900 -1,071 Descending FlightAware ADS-B
Wed 11:04:20 PM 37.7288 -85.0545 312° West 324 373 9,900 -700 Descending FlightAware ADS-B
Wed 11:05:19 PM 37.7804 -85.1361 295° West 265 305 9,900 -756 Level FlightAware ADS-B
Wed 11:06:19 PM 37.8017 -85.2202 287° West 241 277 8,400 -1,537 Descending FlightAware ADS-B
Wed 11:07:20 PM 37.8013 -85.3067 260° West 251 289 6,800 -1,550 Descending FlightAware ADS-B
Wed 11:08:19 PM 37.7892 -85.3906 260° West 246 283 5,300 -1,461 Descending FlightAware ADS-B
Wed 11:09:15 PM 37.7904 -85.4680 286° West 232 267 4,000 -618 Descending FlightAware ADS-B
Wed 11:10:35 PM 37.8412 -85.5521 309° West 230 265 3,900 -44 Descending FlightAware ADS-B
Wed 11:11:31 PM 37.8761 -85.6067 309° West 205 236 3,900  Level FlightAware ADS-B (KIXA)
Wed 11:12:12 PM 37.9004 -85.6452 309° West 176 203 3,900 -286 Level FlightAware ADS-B (KIXA)
Wed 11:12:34 PM 37.9116 -85.6581 344° North 174 200 3,600 -659 Descending FlightAware ADS-B
Wed 11:13:34 PM 37.9587 -85.6727 345° North 156 180 3,000 -347 Descending FlightAware ADS-B
Wed 11:14:35 PM 38.0018 -85.6870 346° North 157 181 2,900 -99 Descending FlightAware ADS-B
Wed 11:15:35 PM 38.0410 -85.7009 347° North 134 154 2,800 -375 Descending FlightAware ADS-B
Wed 11:16:43 PM 38.0769 -85.7125 344° North 115 132 2,100 -540 Descending FlightAware ADS-B
Wed 11:17:15 PM 38.1000 -85.7167 208° Southwest 114 131 1,900 -621 Descending Louisville TRACON
Wed 11:17:41 PM 38.1072 -85.7225 344° North 114 131 1,500 -774 Descending FlightAware ADS-B
Wed 11:18:17 PM 38.1113 -85.7239 346° North 117 135 1,100 -667 Descending FlightAware ADS-B
Wed 11:19:00 PM 38.1741 -85.7365 211° Southwest  Level Estimated
Wed 11:22:00 PM 38.1667 -85.7333 208° Southwest  Level FlightAware Approximate
Wed 11:26:00 PM 38.1741 -85.7365 208° Southwest  Level Estimated

Login

Don't have an account? Register now (free) for customized features, flight alerts, and more!